Terminal Aerodrome Forecast
Issued by NWS

Current Version | Previous Version | Text Only | Print | Product List | Glossary On
Versions: 1 2 3 4 5 6 7 8 9 10 11 12 13 14 15 16
000
FTUS43 KLSX 141100
TAFCPS
TAF
KCPS 141120Z 1412/1512 VRB03KT 6SM BR SCT250
      TEMPO 1412/1414 3SM BR BKN005
     FM141400 27005KT P6SM SCT060
     FM141800 30009KT P6SM VCTS SCT040CB BKN100
     FM142100 32012KT P6SM SCT050
     FM150200 32008KT P6SM SKC=

USA.gov is the U.S. government's official web portal to all federal, state and local government web resources and services.